Latest Weather Observations for Birdsville

IDQ60801

Issued at 5:22 pm EST Tuesday 7 April 2020 (issued every 10 minutes, with the page automatically refreshed every 10 minutes)

About weather observations | Map of weather stations | Latest weather observations for QLD | Other Formats
Station Details ID: 038026 Name: BIRDSVILLE AIRPORT Lat: -25.90 Lon: 139.35 Height: 46.6 m
Data from the previous 72 hours. | See also: Recent months at Birdsville
Date/Time
EST
Temp
°C
App
Temp
°C
Dew
Point
°C
Rel
Hum
%
Delta-T
°C
Wind Press
QNH
hPa
Press
MSL
hPa
Rain since
9am
mm
Dir  Spd
km/h
Gust
km/h
Spd
kts
Gust
kts
07/05:00pm 28.2 23.9 6.9 26 11.3 SSE 19 26 10 14 1014.7 1014.5 0.0
07/04:30pm 28.6 24.5 7.8 27 11.3 SSE 19 28 10 15 1014.6 1014.4 0.0
07/04:00pm 28.7 24.3 7.3 26 11.5 SSE 20 33 11 18 1014.7 1014.5 0.0
07/03:30pm 28.2 23.7 6.3 25 11.5 SE 19 26 10 14 1015.0 1014.8 0.0
07/03:00pm 28.7 24.6 7.9 27 11.3 SE 19 30 10 16 1015.1 1014.9 0.0
07/02:30pm 28.1 24.0 6.2 25 11.5 SSE 17 26 9 14 1015.3 1015.1 0.0
07/02:00pm 27.4 23.5 7.3 28 10.7 SE 17 24 9 13 1015.9 1015.6 0.0
07/01:30pm 27.4 23.5 7.3 28 10.7 SSE 17 26 9 14 1016.4 1016.1 0.0
07/01:00pm 27.4 23.7 7.8 29 10.5 SSE 17 22 9 12 1017.2 1016.9 0.0
07/12:30pm 27.1 23.9 8.5 31 10.1 ESE 15 22 8 12 1017.9 1017.6 0.0
07/12:00pm 26.7 22.7 9.1 33 9.6 ESE 20 28 11 15 1018.3 1018.1 0.0
07/11:30am 26.5 22.5 8.9 33 9.6 E 20 28 11 15 1018.5 1018.3 0.0
07/11:00am 25.6 21.8 9.0 35 9.0 ESE 19 26 10 14 1019.0 1018.8 0.0
07/10:30am 24.8 20.8 9.1 37 8.5 ESE 20 24 11 13 1019.1 1018.9 0.0
07/10:00am 23.7 20.0 10.0 42 7.5 ESE 20 26 11 14 1019.4 1019.2 0.0
07/09:30am 22.3 19.1 10.1 46 6.7 SE 17 24 9 13 1019.3 1019.1 0.0
07/09:00am 20.2 17.6 10.6 54 5.2 SE 15 19 8 10 1019.2 1019.0 0.0
07/08:30am 18.3 16.0 10.4 60 4.2 SSE 13 17 7 9 1018.9 1018.7 0.0
07/08:00am 16.1 14.9 10.2 68 3.1 S 7 11 4 6 1018.5 1018.3 0.0
07/07:30am 14.8 13.1 9.8 72 2.6 SSW 9 11 5 6 1018.3 1018.1 0.0
07/07:00am 14.1 11.9 9.5 74 2.4 SSW 11 13 6 7 1017.8 1017.5 0.0
07/06:30am 14.6 12.8 9.6 72 2.6 S 9 11 5 6 1017.4 1017.1 0.0
07/06:00am 14.0 12.5 9.0 72 2.5 S 7 9 4 5 1017.1 1016.8 0.0
07/05:30am 14.6 12.7 9.2 70 2.8 SSW 9 11 5 6 1017.1 1016.8 0.0
07/05:00am 14.8 13.0 9.4 70 2.8 SW 9 11 5 6 1016.8 1016.5 0.0
07/04:30am 15.6 14.1 9.3 66 3.3 SSE 7 9 4 5 1016.7 1016.4 0.0
07/04:00am 16.0 13.8 9.2 64 3.5 SSE 11 13 6 7 1016.3 1016.0 0.0
07/03:30am 16.1 14.2 9.1 63 3.6 SSE 9 13 5 7 1016.2 1015.9 0.0
07/03:00am 16.3 14.4 9.0 62 3.8 SSE 9 11 5 6 1016.7 1016.4 0.0
07/02:30am 16.4 14.8 8.9 61 3.9 SSE 7 9 4 5 1016.9 1016.6 0.0
07/02:00am 16.8 14.4 8.8 59 4.1 SSE 11 13 6 7 1017.0 1016.7 0.0
07/01:30am 17.2 15.2 8.6 57 4.4 SSE 9 11 5 6 1017.5 1017.2 0.0
07/01:00am 17.6 14.8 8.7 56 4.6 SE 13 15 7 8 1017.5 1017.2 0.0
07/12:30am 17.8 15.0 8.4 54 4.8 SSE 13 17 7 9 1017.9 1017.6 0.0
07/12:00am 18.4 15.6 8.4 52 5.2 SSE 13 17 7 9 1018.1 1017.9 0.0
 
Date/Time
EST
Temp
°C
App
Temp
°C
Dew
Point
°C
Rel
Hum
%
Delta-T
°C
Wind Press
QNH
hPa
Press
MSL
hPa
Rain since
9am
mm
Dir  Spd
km/h
Gust
km/h
Spd
kts
Gust
kts
06/11:30pm 19.1 15.8 8.1 49 5.7 S 15 17 8 9 1018.2 1018.0 0.0
06/11:00pm 18.6 16.1 8.3 51 5.3 S 11 13 6 7 1018.4 1018.2 0.0
06/10:30pm 20.3 16.9 7.7 44 6.5 S 15 17 8 9 1018.4 1018.2 0.0
06/10:00pm 20.3 17.8 8.0 45 6.4 S 11 13 6 7 1018.4 1018.2 0.0
06/09:30pm 20.7 17.7 7.7 43 6.7 SSW 13 13 7 7 1018.4 1018.2 0.0
06/09:00pm 21.3 18.3 7.9 42 7.0 S 13 15 7 8 1018.1 1017.9 0.0
06/08:30pm 21.7 18.7 7.5 40 7.4 S 13 15 7 8 1017.9 1017.6 0.0
06/08:00pm 22.7 19.5 6.9 36 8.1 SSE 13 17 7 9 1017.6 1017.3 0.0
06/07:30pm 23.2 20.1 7.3 36 8.3 S 13 15 7 8 1017.3 1017.0 0.0
06/07:00pm 24.0 21.3 7.2 34 8.8 S 11 13 6 7 1017.1 1016.8 0.0
06/06:30pm 25.2 22.0 6.9 31 9.6 S 13 20 7 11 1016.9 1016.6 0.0
06/06:00pm 26.2 22.1 6.3 28 10.4 S 17 20 9 11 1016.7 1016.4 0.0
06/05:30pm 26.6 21.9 6.1 27 10.7 S 20 26 11 14 1016.5 1016.2 0.0
06/05:00pm 26.8 22.7 6.2 27 10.7 S 17 24 9 13 1016.4 1016.1 0.0
06/04:30pm 27.0 22.9 6.4 27 10.8 S 17 26 9 14 1016.4 1016.1 0.0
06/04:00pm 27.3 23.3 6.7 27 10.9 S 17 26 9 14 1016.5 1016.2 0.0
06/03:30pm 27.0 22.9 6.4 27 10.8 S 17 24 9 13 1016.7 1016.4 0.0
06/03:00pm 26.5 23.2 6.5 28 10.5 SSE 13 22 7 12 1016.8 1016.5 0.0
06/02:30pm 26.3 23.0 6.4 28 10.4 SSE 13 20 7 11 1017.1 1016.8 0.0
06/02:00pm 26.7 23.1 6.7 28 10.5 S 15 22 8 12 1017.5 1017.2 0.0
06/01:30pm 25.8 23.8 6.4 29 10.1 ESE 6 11 3 6 1018.1 1017.9 0.0
06/01:00pm 25.3 22.4 6.5 30 9.8 E 11 15 6 8 1018.7 1018.5 0.0
06/12:30pm 25.5 23.0 6.7 30 9.8 S 9 17 5 9 1019.3 1019.1 0.0
06/12:00pm 25.2 22.0 6.9 31 9.6 E 13 20 7 11 1019.7 1019.5 0.0
06/11:30am 24.5 21.4 7.2 33 9.1 ESE 13 24 7 13 1020.2 1020.0 0.0
06/11:00am 24.0 20.1 7.2 34 8.8 SE 17 28 9 15 1020.5 1020.3 0.0
06/10:30am 23.7 19.5 7.3 35 8.6 SE 19 26 10 14 1020.6 1020.4 0.0
06/10:00am 22.7 18.4 7.7 38 7.8 SSE 20 24 11 13 1020.9 1020.7 0.0
06/09:30am 21.8 17.9 8.7 43 6.9 SSE 19 24 10 13 1020.8 1020.6 0.0
06/09:00am 19.9 16.4 8.9 49 5.8 SSE 17 24 9 13 1020.8 1020.6 0.0
06/08:30am 17.2 15.1 9.6 61 4.0 SSE 11 17 6 9 1020.6 1020.4 0.0
06/08:00am 15.5 13.6 9.2 66 3.2 SSE 9 11 5 6 1020.3 1020.1 0.0
06/07:30am 13.5 11.6 9.2 75 2.2 SSW 9 11 5 6 1020.0 1019.8 0.0
06/07:00am 12.7 10.7 8.8 77 1.9 SSW 9 11 5 6 1019.8 1019.6 0.0
06/06:30am 12.8 10.9 8.9 77 2.0 S 9 11 5 6 1019.4 1019.2 0.0
06/06:00am 12.8 10.9 8.9 77 2.0 SSW 9 11 5 6 1019.2 1019.0 0.0
06/05:30am 13.3 11.4 9.2 76 2.1 S 9 9 5 5 1019.1 1018.9 0.0
06/05:00am 13.2 11.2 8.7 74 2.3 SSW 9 9 5 5 1018.8 1018.6 0.0
06/04:30am 13.4 11.1 8.9 74 2.3 SSW 11 13 6 7 1018.6 1018.4 0.0
06/04:00am 13.8 11.8 8.6 71 2.6 SSW 9 11 5 6 1018.8 1018.6 0.0
06/03:30am 14.6 12.2 8.8 68 2.9 SSW 11 15 6 8 1018.7 1018.5 0.0
06/03:00am 13.8 11.0 8.4 70 2.7 SSW 13 13 7 7 1018.6 1018.4 0.0
06/02:30am 14.1 10.9 8.3 68 2.9 SSW 15 15 8 8 1019.0 1018.8 0.0
06/02:00am 14.9 11.6 7.9 63 3.5 SW 15 20 8 11 1018.9 1018.7 0.0
06/01:30am 16.6 14.0 7.8 56 4.4 S 11 13 6 7 1018.6 1018.4 0.0
06/01:00am 17.2 14.2 7.8 54 4.8 S 13 15 7 8 1018.5 1018.3 0.0
06/12:30am 17.7 14.3 7.7 52 5.1 S 15 19 8 10 1018.6 1018.4 0.0
06/12:00am 17.8 15.2 7.8 52 5.1 S 11 15 6 8 1018.9 1018.7 0.0
 
Date/Time
EST
Temp
°C
App
Temp
°C
Dew
Point
°C
Rel
Hum
%
Delta-T
°C
Wind Press
QNH
hPa
Press
MSL
hPa
Rain since
9am
mm
Dir  Spd
km/h
Gust
km/h
Spd
kts
Gust
kts
05/11:30pm 17.9 14.9 7.6 51 5.2 S 13 17 7 9 1018.9 1018.7 0.0
05/11:00pm 18.6 14.8 7.7 49 5.5 S 17 19 9 10 1019.0 1018.8 0.0
05/10:30pm 18.9 15.1 7.7 48 5.7 S 17 20 9 11 1019.0 1018.8 0.0
05/10:00pm 20.1 15.9 7.5 44 6.4 S 19 24 10 13 1019.0 1018.8 0.0
05/09:30pm 19.9 16.5 7.6 45 6.3 S 15 19 8 10 1018.9 1018.7 0.0
05/09:00pm 20.6 17.1 7.2 42 6.8 S 15 20 8 11 1018.7 1018.5 0.0
05/08:30pm 21.1 17.6 7.3 41 7.1 S 15 19 8 10 1018.5 1018.3 0.0
05/08:00pm 21.6 18.1 7.4 40 7.3 S 15 20 8 11 1018.2 1018.0 0.0
05/07:30pm 21.9 18.4 7.0 38 7.7 S 15 17 8 9 1017.9 1017.6 0.0
05/07:00pm 22.8 19.3 7.0 36 8.2 S 15 20 8 11 1017.5 1017.2 0.0
05/06:30pm 23.9 19.9 6.7 33 8.9 S 17 22 9 12 1017.1 1016.8 0.0
05/06:00pm 24.8 20.3 6.1 30 9.6 S 19 26 10 14 1016.6 1016.3 0.0
05/05:30pm 25.4 19.8 5.6 28 10.1 S 24 33 13 18 1016.5 1016.2 0.0
05/05:00pm 25.7 20.5 5.3 27 10.4 S 22 30 12 16 1016.2 1015.9 0.0
05/04:30pm 25.6 20.3 5.2 27 10.4 S 22 30 12 16 1016.1 1015.8 0.0
05/04:00pm 26.3 21.2 5.8 27 10.6 S 22 32 12 17 1016.0 1015.7 0.0
05/03:30pm 26.2 20.8 6.3 28 10.4 SSE 24 33 13 18 1016.2 1015.9 0.0
05/03:00pm 25.8 20.2 5.4 27 10.4 S 24 35 13 19 1016.4 1016.1 0.0
05/02:30pm 25.7 20.1 5.3 27 10.4 SSE 24 32 13 17 1016.6 1016.3 0.0
05/02:00pm 25.7 20.3 6.3 29 10.1 S 24 33 13 18 1017.1 1016.8 0.0
05/01:30pm 25.5 20.3 5.7 28 10.2 S 22 32 12 17 1017.6 1017.3 0.0
05/01:00pm 25.2 20.6 6.4 30 9.7 S 20 28 11 15 1018.2 1018.0 0.0
05/12:30pm 24.5 19.1 6.3 31 9.4 SSE 24 32 13 17 1018.5 1018.3 0.0
05/12:00pm 24.7 20.2 6.9 32 9.3 SSE 20 30 11 16 1019.1 1018.9 0.0
05/11:30am 23.7 18.3 6.5 33 8.9 SSE 24 35 13 19 1019.6 1019.4 0.0
05/11:00am 23.2 18.2 6.5 34 8.6 S 22 35 12 19 1019.9 1019.7 0.0
05/10:30am 22.7 17.9 7.3 37 8.0 S 22 32 12 17 1020.2 1020.0 0.0
05/10:00am 21.6 17.2 7.4 40 7.3 SSE 20 28 11 15 1020.4 1020.2 0.0
05/09:30am 20.3 15.7 8.3 46 6.3 S 22 26 12 14 1020.2 1020.0 0.0
05/09:00am 18.6 16.1 9.7 56 4.7 S 13 17 7 9 1020.0 1019.8 0.0
05/08:30am 15.9 13.8 9.8 67 3.2 SSW 11 15 6 8 1019.8 1019.6 0.0
05/08:00am 14.3 12.5 9.3 72 2.6 SW 9 11 5 6 1019.5 1019.3 0.0
05/07:30am 12.9 11.0 9.0 77 2.0 SW 9 11 5 6 1019.2 1019.0 0.0
05/07:00am 12.5 10.6 9.0 79 1.8 WSW 9 11 5 6 1019.0 1018.8 0.0
05/06:30am 12.6 10.3 8.9 78 1.9 SW 11 11 6 6 1018.7 1018.5 0.0
05/06:00am 12.8 10.9 9.1 78 1.9 WSW 9 11 5 6 1018.2 1018.0 0.0
05/05:30am 12.9 10.6 9.0 77 2.0 WSW 11 13 6 7 1018.1 1017.9 0.0
05/05:00am 12.7 10.3 8.8 77 2.0 SW 11 13 6 7 1017.7 1017.4 0.0
05/04:30am 12.7 10.5 9.2 79 1.8 SW 11 13 6 7 1017.5 1017.2 0.0
05/04:00am 12.7 10.5 9.2 79 1.8 SW 11 13 6 7 1017.5 1017.2 0.0
05/03:30am 13.1 10.5 9.2 77 2.0 SW 13 15 7 8 1017.3 1017.0 0.0
05/03:00am 13.7 11.1 9.2 74 2.3 SW 13 15 7 8 1017.4 1017.1 0.0
05/02:30am 14.2 12.9 9.2 72 2.6 WSW 6 13 3 7 1017.5 1017.2 0.0
05/02:00am 14.5 13.0 9.3 71 2.7 WSW 7 13 4 7 1017.6 1017.3 0.0
05/01:30am 14.9 12.3 9.5 70 2.8 SW 13 13 7 7 1017.6 1017.3 0.0
05/01:00am 15.5 13.4 9.6 68 3.1 WSW 11 13 6 7 1018.0 1017.7 0.0
05/12:30am 15.7 13.6 9.6 67 3.2 WSW 11 15 6 8 1018.0 1017.7 0.0
05/12:00am 15.8 14.4 9.7 67 3.2 WSW 7 13 4 7 1017.9 1017.6 0.0
 
Date/Time
EST
Temp
°C
App
Temp
°C
Dew
Point
°C
Rel
Hum
%
Delta-T
°C
Wind Press
QNH
hPa
Press
MSL
hPa
Rain since
9am
mm
Dir  Spd
km/h
Gust
km/h
Spd
kts
Gust
kts
04/11:30pm 16.0 15.6 9.7 66 3.3 SW 2 13 1 7 1018.0 1017.7 0.0
04/11:00pm 16.4 13.9 9.8 65 3.5 SW 13 15 7 8 1018.1 1017.9 0.0
04/10:30pm 16.3 16.0 10.2 67 3.2 SW 2 13 1 7 1018.1 1017.9 0.0
04/10:00pm 16.4 15.3 9.8 65 3.5 SW 6 11 3 6 1018.0 1017.7 0.0
04/09:30pm 17.3 14.7 9.5 60 4.1 SW 13 15 7 8 1017.6 1017.3 0.0
04/09:00pm 17.8 15.3 9.7 59 4.3 SW 13 15 7 8 1017.2 1016.9 0.0
04/08:30pm 19.1 16.1 9.3 53 5.2 SSW 15 19 8 10 1016.8 1016.5 0.0
04/08:00pm 19.6 16.3 9.5 52 5.4 S 17 19 9 10 1016.4 1016.1 0.0
04/07:30pm 20.2 16.8 9.2 49 5.8 SSW 17 19 9 10 1015.6 1015.4 0.0
04/07:00pm 21.0 17.1 8.6 45 6.5 S 19 24 10 13 1015.2 1015.0 0.0
04/06:30pm 21.9 17.0 8.4 42 7.1 S 24 32 13 17 1015.0 1014.8 0.0
04/06:00pm 22.6 16.6 7.2 37 8.0 SSW 28 33 15 18 1014.7 1014.5 0.0
04/05:30pm 23.2 16.8 6.9 35 8.4 SSW 30 35 16 19 1014.5 1014.3 0.0

Other formats

Comma delimited format used in spreadsheet applications
http://www.bom.gov.au/fwo/IDQ60801/IDQ60801.95482.axf

JavaScript Object Notation format (JSON) in row-major order
http://www.bom.gov.au/fwo/IDQ60801/IDQ60801.95482.json

Data quality

Most of these data are generated automatically and are frequently updated. Quality checks on data are not normally performed. It is possible for incorrect values to appear. Refer to information at About Latest Weather Observations and please check the disclaimer before using these data.